sensor_id;sensor_type;location;lat;lon;timestamp;P1;durP1;ratioP1;P2;durP2;ratioP2
55465;SDS011;41329;41.594;23.810;2024-01-10T00:01:07;5.30;;;4.80;;
55465;SDS011;41329;41.594;23.810;2024-01-10T00:03:33;5.27;;;4.87;;
55465;SDS011;41329;41.594;23.810;2024-01-10T00:05:58;4.70;;;4.30;;
55465;SDS011;41329;41.594;23.810;2024-01-10T00:08:24;5.03;;;4.63;;
55465;SDS011;41329;41.594;23.810;2024-01-10T00:10:50;7.27;;;6.60;;
55465;SDS011;41329;41.594;23.810;2024-01-10T00:13:21;9.70;;;7.40;;
55465;SDS011;41329;41.594;23.810;2024-01-10T00:15:47;7.47;;;6.63;;
55465;SDS011;41329;41.594;23.810;2024-01-10T00:18:13;8.60;;;6.83;;
55465;SDS011;41329;41.594;23.810;2024-01-10T00:20:39;7.40;;;6.70;;
55465;SDS011;41329;41.594;23.810;2024-01-10T00:23:05;8.27;;;7.37;;
55465;SDS011;41329;41.594;23.810;2024-01-10T00:25:31;7.23;;;6.53;;
55465;SDS011;41329;41.594;23.810;2024-01-10T00:27:57;6.80;;;6.20;;
55465;SDS011;41329;41.594;23.810;2024-01-10T00:30:23;5.60;;;5.10;;
55465;SDS011;41329;41.594;23.810;2024-01-10T00:32:48;5.73;;;5.20;;
55465;SDS011;41329;41.594;23.810;2024-01-10T00:35:13;5.27;;;4.77;;
55465;SDS011;41329;41.594;23.810;2024-01-10T00:37:39;5.30;;;4.80;;
55465;SDS011;41329;41.594;23.810;2024-01-10T00:40:05;6.30;;;4.87;;
55465;SDS011;41329;41.594;23.810;2024-01-10T00:42:30;3.67;;;3.37;;
55465;SDS011;41329;41.594;23.810;2024-01-10T00:44:56;3.27;;;2.93;;
55465;SDS011;41329;41.594;23.810;2024-01-10T00:47:21;3.60;;;3.30;;
55465;SDS011;41329;41.594;23.810;2024-01-10T00:49:47;3.87;;;3.57;;
55465;SDS011;41329;41.594;23.810;2024-01-10T00:52:12;2.87;;;2.67;;
55465;SDS011;41329;41.594;23.810;2024-01-10T00:54:38;2.87;;;2.60;;
55465;SDS011;41329;41.594;23.810;2024-01-10T00:57:03;3.20;;;2.90;;
55465;SDS011;41329;41.594;23.810;2024-01-10T00:59:29;4.83;;;3.17;;
55465;SDS011;41329;41.594;23.810;2024-01-10T01:01:54;3.03;;;2.73;;
55465;SDS011;41329;41.594;23.810;2024-01-10T01:04:19;2.53;;;2.33;;
55465;SDS011;41329;41.594;23.810;2024-01-10T01:06:45;3.20;;;2.90;;
55465;SDS011;41329;41.594;23.810;2024-01-10T01:09:11;2.50;;;2.30;;
55465;SDS011;41329;41.594;23.810;2024-01-10T01:11:38;3.00;;;2.80;;
55465;SDS011;41329;41.594;23.810;2024-01-10T01:14:04;3.00;;;2.60;;
55465;SDS011;41329;41.594;23.810;2024-01-10T01:16:29;3.33;;;3.03;;
55465;SDS011;41329;41.594;23.810;2024-01-10T01:18:55;2.83;;;2.63;;
55465;SDS011;41329;41.594;23.810;2024-01-10T01:21:20;2.60;;;2.40;;
55465;SDS011;41329;41.594;23.810;2024-01-10T01:23:46;3.07;;;2.77;;
55465;SDS011;41329;41.594;23.810;2024-01-10T01:26:11;3.07;;;2.87;;
55465;SDS011;41329;41.594;23.810;2024-01-10T01:28:38;2.67;;;2.47;;
55465;SDS011;41329;41.594;23.810;2024-01-10T01:31:04;2.90;;;2.60;;
55465;SDS011;41329;41.594;23.810;2024-01-10T01:33:29;2.67;;;2.47;;
55465;SDS011;41329;41.594;23.810;2024-01-10T01:35:55;2.57;;;2.37;;
55465;SDS011;41329;41.594;23.810;2024-01-10T01:38:20;2.73;;;2.50;;
55465;SDS011;41329;41.594;23.810;2024-01-10T01:40:46;2.40;;;2.20;;
55465;SDS011;41329;41.594;23.810;2024-01-10T01:43:21;2.90;;;2.17;;
55465;SDS011;41329;41.594;23.810;2024-01-10T01:45:53;2.20;;;2.00;;
55465;SDS011;41329;41.594;23.810;2024-01-10T01:48:19;2.30;;;2.10;;
55465;SDS011;41329;41.594;23.810;2024-01-10T01:50:45;2.30;;;2.10;;
55465;SDS011;41329;41.594;23.810;2024-01-10T01:53:13;2.63;;;2.43;;
55465;SDS011;41329;41.594;23.810;2024-01-10T01:55:40;2.13;;;1.97;;
55465;SDS011;41329;41.594;23.810;2024-01-10T01:58:07;2.43;;;2.23;;
55465;SDS011;41329;41.594;23.810;2024-01-10T02:00:33;2.70;;;2.50;;
55465;SDS011;41329;41.594;23.810;2024-01-10T02:02:59;2.47;;;2.27;;
55465;SDS011;41329;41.594;23.810;2024-01-10T02:05:25;2.60;;;2.40;;
55465;SDS011;41329;41.594;23.810;2024-01-10T02:07:51;2.43;;;2.23;;
55465;SDS011;41329;41.594;23.810;2024-01-10T02:10:16;2.40;;;2.20;;
55465;SDS011;41329;41.594;23.810;2024-01-10T02:12:42;2.03;;;1.90;;
55465;SDS011;41329;41.594;23.810;2024-01-10T02:15:09;2.10;;;1.80;;
55465;SDS011;41329;41.594;23.810;2024-01-10T02:17:34;1.80;;;1.70;;
55465;SDS011;41329;41.594;23.810;2024-01-10T02:22:34;2.50;;;2.00;;
55465;SDS011;41329;41.594;23.810;2024-01-10T02:24:59;2.50;;;2.30;;
55465;SDS011;41329;41.594;23.810;2024-01-10T02:27:25;2.70;;;2.50;;
55465;SDS011;41329;41.594;23.810;2024-01-10T02:29:51;3.20;;;2.27;;
55465;SDS011;41329;41.594;23.810;2024-01-10T02:32:19;2.43;;;2.23;;
55465;SDS011;41329;41.594;23.810;2024-01-10T02:34:44;2.80;;;2.60;;
55465;SDS011;41329;41.594;23.810;2024-01-10T02:37:10;2.57;;;2.37;;
55465;SDS011;41329;41.594;23.810;2024-01-10T02:39:35;2.70;;;2.50;;
55465;SDS011;41329;41.594;23.810;2024-01-10T02:42:00;2.43;;;2.23;;
55465;SDS011;41329;41.594;23.810;2024-01-10T02:44:26;2.50;;;2.30;;
55465;SDS011;41329;41.594;23.810;2024-01-10T02:46:53;4.00;;;3.70;;
55465;SDS011;41329;41.594;23.810;2024-01-10T02:49:18;5.43;;;4.93;;
55465;SDS011;41329;41.594;23.810;2024-01-10T02:51:44;5.93;;;5.33;;
55465;SDS011;41329;41.594;23.810;2024-01-10T02:54:10;5.90;;;5.30;;
55465;SDS011;41329;41.594;23.810;2024-01-10T02:56:35;5.80;;;5.30;;
55465;SDS011;41329;41.594;23.810;2024-01-10T02:59:01;6.03;;;5.53;;
55465;SDS011;41329;41.594;23.810;2024-01-10T03:01:26;5.93;;;5.43;;
55465;SDS011;41329;41.594;23.810;2024-01-10T03:03:51;5.67;;;5.17;;
55465;SDS011;41329;41.594;23.810;2024-01-10T03:06:17;4.60;;;4.20;;
55465;SDS011;41329;41.594;23.810;2024-01-10T03:08:42;4.37;;;3.97;;
55465;SDS011;41329;41.594;23.810;2024-01-10T03:11:09;3.83;;;3.53;;
55465;SDS011;41329;41.594;23.810;2024-01-10T03:13:34;4.47;;;4.07;;
55465;SDS011;41329;41.594;23.810;2024-01-10T03:16:00;4.90;;;4.50;;
55465;SDS011;41329;41.594;23.810;2024-01-10T03:18:25;5.43;;;4.93;;
55465;SDS011;41329;41.594;23.810;2024-01-10T03:20:51;5.97;;;5.40;;
55465;SDS011;41329;41.594;23.810;2024-01-10T03:23:17;5.23;;;4.73;;
55465;SDS011;41329;41.594;23.810;2024-01-10T03:25:42;5.37;;;4.87;;
55465;SDS011;41329;41.594;23.810;2024-01-10T03:28:07;5.97;;;5.30;;
55465;SDS011;41329;41.594;23.810;2024-01-10T03:30:33;5.47;;;4.97;;
55465;SDS011;41329;41.594;23.810;2024-01-10T03:32:58;4.60;;;4.23;;
55465;SDS011;41329;41.594;23.810;2024-01-10T03:35:23;5.30;;;4.80;;
55465;SDS011;41329;41.594;23.810;2024-01-10T03:37:49;4.93;;;4.50;;
55465;SDS011;41329;41.594;23.810;2024-01-10T03:40:14;4.70;;;4.23;;
55465;SDS011;41329;41.594;23.810;2024-01-10T03:42:40;4.93;;;4.10;;
55465;SDS011;41329;41.594;23.810;2024-01-10T03:45:05;4.40;;;4.00;;
55465;SDS011;41329;41.594;23.810;2024-01-10T03:47:31;4.23;;;3.93;;
55465;SDS011;41329;41.594;23.810;2024-01-10T03:49:56;3.70;;;3.40;;
55465;SDS011;41329;41.594;23.810;2024-01-10T03:52:22;3.63;;;3.33;;
55465;SDS011;41329;41.594;23.810;2024-01-10T03:54:47;3.20;;;2.97;;
55465;SDS011;41329;41.594;23.810;2024-01-10T03:57:13;3.43;;;3.13;;
55465;SDS011;41329;41.594;23.810;2024-01-10T03:59:38;3.40;;;3.10;;
55465;SDS011;41329;41.594;23.810;2024-01-10T04:02:04;3.63;;;3.27;;
55465;SDS011;41329;41.594;23.810;2024-01-10T04:04:30;3.90;;;3.60;;
55465;SDS011;41329;41.594;23.810;2024-01-10T04:06:55;4.13;;;3.83;;
55465;SDS011;41329;41.594;23.810;2024-01-10T04:09:21;4.13;;;3.83;;
55465;SDS011;41329;41.594;23.810;2024-01-10T04:11:46;5.23;;;4.93;;
55465;SDS011;41329;41.594;23.810;2024-01-10T04:14:11;4.43;;;4.10;;
55465;SDS011;41329;41.594;23.810;2024-01-10T04:16:37;4.80;;;4.50;;
55465;SDS011;41329;41.594;23.810;2024-01-10T04:19:03;4.50;;;4.20;;
55465;SDS011;41329;41.594;23.810;2024-01-10T04:21:28;4.37;;;4.07;;
55465;SDS011;41329;41.594;23.810;2024-01-10T04:23:53;3.97;;;3.67;;
55465;SDS011;41329;41.594;23.810;2024-01-10T04:26:19;3.80;;;3.50;;
55465;SDS011;41329;41.594;23.810;2024-01-10T04:28:44;3.50;;;3.20;;
55465;SDS011;41329;41.594;23.810;2024-01-10T04:31:10;3.37;;;3.07;;
55465;SDS011;41329;41.594;23.810;2024-01-10T04:33:35;2.80;;;2.60;;
55465;SDS011;41329;41.594;23.810;2024-01-10T04:36:01;2.70;;;2.50;;
55465;SDS011;41329;41.594;23.810;2024-01-10T04:38:26;3.30;;;3.00;;
55465;SDS011;41329;41.594;23.810;2024-01-10T04:40:52;2.63;;;2.43;;
55465;SDS011;41329;41.594;23.810;2024-01-10T04:43:18;2.57;;;2.37;;
55465;SDS011;41329;41.594;23.810;2024-01-10T04:45:43;2.73;;;2.53;;
55465;SDS011;41329;41.594;23.810;2024-01-10T04:48:09;3.20;;;2.20;;
55465;SDS011;41329;41.594;23.810;2024-01-10T04:50:34;2.10;;;1.90;;
55465;SDS011;41329;41.594;23.810;2024-01-10T04:53:00;2.00;;;1.80;;
55465;SDS011;41329;41.594;23.810;2024-01-10T04:55:25;1.70;;;1.60;;
55465;SDS011;41329;41.594;23.810;2024-01-10T04:57:51;2.07;;;1.90;;
55465;SDS011;41329;41.594;23.810;2024-01-10T05:00:16;1.73;;;1.63;;
55465;SDS011;41329;41.594;23.810;2024-01-10T05:02:42;2.03;;;1.83;;
55465;SDS011;41329;41.594;23.810;2024-01-10T05:05:07;1.60;;;1.50;;
55465;SDS011;41329;41.594;23.810;2024-01-10T05:07:33;1.60;;;1.47;;
55465;SDS011;41329;41.594;23.810;2024-01-10T05:09:58;2.00;;;1.47;;
55465;SDS011;41329;41.594;23.810;2024-01-10T05:12:24;1.37;;;1.27;;
55465;SDS011;41329;41.594;23.810;2024-01-10T05:14:50;1.53;;;1.43;;
55465;SDS011;41329;41.594;23.810;2024-01-10T05:17:15;1.40;;;1.30;;
55465;SDS011;41329;41.594;23.810;2024-01-10T05:19:41;1.40;;;1.30;;
55465;SDS011;41329;41.594;23.810;2024-01-10T05:22:06;1.27;;;1.17;;
55465;SDS011;41329;41.594;23.810;2024-01-10T05:24:32;1.20;;;1.10;;
55465;SDS011;41329;41.594;23.810;2024-01-10T05:26:57;1.80;;;1.70;;
55465;SDS011;41329;41.594;23.810;2024-01-10T05:29:23;2.00;;;1.40;;
55465;SDS011;41329;41.594;23.810;2024-01-10T05:31:49;1.90;;;1.70;;
55465;SDS011;41329;41.594;23.810;2024-01-10T05:34:15;1.40;;;1.30;;
55465;SDS011;41329;41.594;23.810;2024-01-10T05:36:41;1.40;;;1.30;;
55465;SDS011;41329;41.594;23.810;2024-01-10T05:39:07;1.87;;;1.67;;
55465;SDS011;41329;41.594;23.810;2024-01-10T05:41:32;2.73;;;1.80;;
55465;SDS011;41329;41.594;23.810;2024-01-10T05:43:58;1.60;;;1.50;;
55465;SDS011;41329;41.594;23.810;2024-01-10T05:46:23;1.70;;;1.60;;
55465;SDS011;41329;41.594;23.810;2024-01-10T05:48:48;1.50;;;1.30;;
55465;SDS011;41329;41.594;23.810;2024-01-10T05:51:14;1.50;;;1.30;;
55465;SDS011;41329;41.594;23.810;2024-01-10T05:53:40;1.80;;;1.70;;
55465;SDS011;41329;41.594;23.810;2024-01-10T05:56:06;1.50;;;1.30;;
55465;SDS011;41329;41.594;23.810;2024-01-10T05:58:32;1.40;;;1.30;;
55465;SDS011;41329;41.594;23.810;2024-01-10T06:00:57;1.73;;;1.63;;
55465;SDS011;41329;41.594;23.810;2024-01-10T06:03:23;1.83;;;1.73;;
55465;SDS011;41329;41.594;23.810;2024-01-10T06:05:49;2.50;;;1.47;;
55465;SDS011;41329;41.594;23.810;2024-01-10T06:08:15;1.30;;;1.20;;
55465;SDS011;41329;41.594;23.810;2024-01-10T06:10:41;1.30;;;1.20;;
55465;SDS011;41329;41.594;23.810;2024-01-10T06:13:06;1.00;;;0.90;;
55465;SDS011;41329;41.594;23.810;2024-01-10T06:15:32;1.33;;;1.23;;
55465;SDS011;41329;41.594;23.810;2024-01-10T06:17:57;1.10;;;1.00;;
55465;SDS011;41329;41.594;23.810;2024-01-10T06:20:23;1.40;;;1.10;;
55465;SDS011;41329;41.594;23.810;2024-01-10T06:22:49;0.87;;;0.87;;
55465;SDS011;41329;41.594;23.810;2024-01-10T06:25:14;0.90;;;0.90;;
55465;SDS011;41329;41.594;23.810;2024-01-10T06:27:40;1.57;;;1.47;;
55465;SDS011;41329;41.594;23.810;2024-01-10T06:30:06;5.97;;;5.50;;
55465;SDS011;41329;41.594;23.810;2024-01-10T06:32:32;5.13;;;4.73;;
55465;SDS011;41329;41.594;23.810;2024-01-10T06:34:58;7.77;;;7.17;;
55465;SDS011;41329;41.594;23.810;2024-01-10T06:37:25;17.77;;;12.83;;
55465;SDS011;41329;41.594;23.810;2024-01-10T06:39:50;21.93;;;17.50;;
55465;SDS011;41329;41.594;23.810;2024-01-10T06:42:16;20.03;;;17.00;;
55465;SDS011;41329;41.594;23.810;2024-01-10T06:44:41;23.03;;;17.13;;
55465;SDS011;41329;41.594;23.810;2024-01-10T06:47:07;27.27;;;19.47;;
55465;SDS011;41329;41.594;23.810;2024-01-10T06:49:32;28.23;;;20.20;;
55465;SDS011;41329;41.594;23.810;2024-01-10T06:51:58;32.60;;;21.83;;
55465;SDS011;41329;41.594;23.810;2024-01-10T06:54:25;38.43;;;24.10;;
55465;SDS011;41329;41.594;23.810;2024-01-10T06:56:51;50.67;;;28.13;;
55465;SDS011;41329;41.594;23.810;2024-01-10T06:59:16;31.57;;;20.13;;
55465;SDS011;41329;41.594;23.810;2024-01-10T07:01:42;39.47;;;23.40;;
55465;SDS011;41329;41.594;23.810;2024-01-10T07:04:07;44.70;;;25.40;;
55465;SDS011;41329;41.594;23.810;2024-01-10T07:06:32;53.37;;;27.43;;
55465;SDS011;41329;41.594;23.810;2024-01-10T07:08:58;60.80;;;32.37;;
55465;SDS011;41329;41.594;23.810;2024-01-10T07:11:23;61.70;;;34.97;;
55465;SDS011;41329;41.594;23.810;2024-01-10T07:13:49;68.20;;;35.47;;
55465;SDS011;41329;41.594;23.810;2024-01-10T07:16:14;64.03;;;34.63;;
55465;SDS011;41329;41.594;23.810;2024-01-10T07:18:41;69.77;;;31.97;;
55465;SDS011;41329;41.594;23.810;2024-01-10T07:21:08;58.80;;;29.33;;
55465;SDS011;41329;41.594;23.810;2024-01-10T07:23:34;53.03;;;27.27;;
55465;SDS011;41329;41.594;23.810;2024-01-10T07:26:00;60.70;;;30.13;;
55465;SDS011;41329;41.594;23.810;2024-01-10T07:28:25;40.57;;;23.33;;
55465;SDS011;41329;41.594;23.810;2024-01-10T07:30:50;44.43;;;24.27;;
55465;SDS011;41329;41.594;23.810;2024-01-10T07:33:16;42.17;;;23.83;;
55465;SDS011;41329;41.594;23.810;2024-01-10T07:35:41;19.77;;;17.03;;
55465;SDS011;41329;41.594;23.810;2024-01-10T07:38:07;21.23;;;18.13;;
55465;SDS011;41329;41.594;23.810;2024-01-10T07:40:32;53.67;;;32.10;;
55465;SDS011;41329;41.594;23.810;2024-01-10T07:42:58;51.63;;;25.63;;
55465;SDS011;41329;41.594;23.810;2024-01-10T07:45:24;48.40;;;27.80;;
55465;SDS011;41329;41.594;23.810;2024-01-10T07:47:49;65.57;;;33.37;;
55465;SDS011;41329;41.594;23.810;2024-01-10T07:50:15;23.67;;;19.57;;
55465;SDS011;41329;41.594;23.810;2024-01-10T07:52:40;47.23;;;26.97;;
55465;SDS011;41329;41.594;23.810;2024-01-10T07:55:07;58.17;;;29.10;;
55465;SDS011;41329;41.594;23.810;2024-01-10T07:57:33;61.77;;;31.40;;
55465;SDS011;41329;41.594;23.810;2024-01-10T07:59:59;70.10;;;34.30;;
55465;SDS011;41329;41.594;23.810;2024-01-10T08:02:25;74.30;;;34.93;;
55465;SDS011;41329;41.594;23.810;2024-01-10T08:04:51;50.40;;;28.77;;
55465;SDS011;41329;41.594;23.810;2024-01-10T08:07:17;47.93;;;27.07;;
55465;SDS011;41329;41.594;23.810;2024-01-10T08:09:43;35.07;;;21.40;;
55465;SDS011;41329;41.594;23.810;2024-01-10T08:12:08;20.60;;;17.43;;
55465;SDS011;41329;41.594;23.810;2024-01-10T08:14:34;17.03;;;14.80;;
55465;SDS011;41329;41.594;23.810;2024-01-10T08:16:59;27.57;;;17.50;;
55465;SDS011;41329;41.594;23.810;2024-01-10T08:19:26;30.90;;;16.87;;
55465;SDS011;41329;41.594;23.810;2024-01-10T08:21:52;11.53;;;10.53;;
55465;SDS011;41329;41.594;23.810;2024-01-10T08:24:21;8.37;;;7.57;;
55465;SDS011;41329;41.594;23.810;2024-01-10T08:26:47;8.30;;;7.47;;
55465;SDS011;41329;41.594;23.810;2024-01-10T08:29:20;9.10;;;7.97;;
55465;SDS011;41329;41.594;23.810;2024-01-10T08:31:46;7.97;;;5.47;;
55465;SDS011;41329;41.594;23.810;2024-01-10T08:34:12;8.30;;;7.50;;
55465;SDS011;41329;41.594;23.810;2024-01-10T08:36:37;7.40;;;6.70;;
55465;SDS011;41329;41.594;23.810;2024-01-10T08:39:03;6.70;;;6.20;;
55465;SDS011;41329;41.594;23.810;2024-01-10T08:41:29;6.87;;;6.37;;
55465;SDS011;41329;41.594;23.810;2024-01-10T08:43:55;5.97;;;5.53;;
55465;SDS011;41329;41.594;23.810;2024-01-10T08:46:21;6.73;;;6.13;;
55465;SDS011;41329;41.594;23.810;2024-01-10T08:48:46;6.93;;;6.33;;
55465;SDS011;41329;41.594;23.810;2024-01-10T08:51:13;11.30;;;9.83;;
55465;SDS011;41329;41.594;23.810;2024-01-10T08:53:41;10.63;;;9.63;;
55465;SDS011;41329;41.594;23.810;2024-01-10T08:56:07;15.53;;;13.27;;
55465;SDS011;41329;41.594;23.810;2024-01-10T08:58:33;11.30;;;10.00;;
55465;SDS011;41329;41.594;23.810;2024-01-10T09:00:58;10.47;;;9.30;;
55465;SDS011;41329;41.594;23.810;2024-01-10T09:03:23;11.13;;;10.23;;
55465;SDS011;41329;41.594;23.810;2024-01-10T09:05:49;11.50;;;10.40;;
55465;SDS011;41329;41.594;23.810;2024-01-10T09:08:14;12.07;;;11.07;;
55465;SDS011;41329;41.594;23.810;2024-01-10T09:10:40;16.50;;;14.70;;
55465;SDS011;41329;41.594;23.810;2024-01-10T09:13:06;18.33;;;16.10;;
55465;SDS011;41329;41.594;23.810;2024-01-10T09:15:32;19.60;;;17.50;;
55465;SDS011;41329;41.594;23.810;2024-01-10T09:17:57;20.57;;;18.57;;
55465;SDS011;41329;41.594;23.810;2024-01-10T09:20:23;21.73;;;19.43;;
55465;SDS011;41329;41.594;23.810;2024-01-10T09:22:48;19.87;;;17.73;;
55465;SDS011;41329;41.594;23.810;2024-01-10T09:25:14;16.30;;;14.77;;
55465;SDS011;41329;41.594;23.810;2024-01-10T09:27:39;16.67;;;12.97;;
55465;SDS011;41329;41.594;23.810;2024-01-10T09:30:10;10.07;;;9.07;;
55465;SDS011;41329;41.594;23.810;2024-01-10T09:32:36;39.80;;;28.10;;
55465;SDS011;41329;41.594;23.810;2024-01-10T09:35:02;7.03;;;6.53;;
55465;SDS011;41329;41.594;23.810;2024-01-10T09:37:27;5.07;;;4.57;;
55465;SDS011;41329;41.594;23.810;2024-01-10T09:39:53;10.13;;;9.23;;
55465;SDS011;41329;41.594;23.810;2024-01-10T09:42:19;8.17;;;7.57;;
55465;SDS011;41329;41.594;23.810;2024-01-10T09:44:50;7.97;;;7.37;;
55465;SDS011;41329;41.594;23.810;2024-01-10T09:47:16;7.60;;;6.90;;
55465;SDS011;41329;41.594;23.810;2024-01-10T09:49:42;6.20;;;5.80;;
55465;SDS011;41329;41.594;23.810;2024-01-10T09:52:11;2.50;;;2.30;;
55465;SDS011;41329;41.594;23.810;2024-01-10T09:54:44;3.77;;;3.47;;
55465;SDS011;41329;41.594;23.810;2024-01-10T09:57:12;4.17;;;3.83;;
55465;SDS011;41329;41.594;23.810;2024-01-10T09:59:38;4.63;;;4.23;;
55465;SDS011;41329;41.594;23.810;2024-01-10T10:02:03;6.67;;;6.13;;
55465;SDS011;41329;41.594;23.810;2024-01-10T10:04:29;6.00;;;5.33;;
55465;SDS011;41329;41.594;23.810;2024-01-10T10:06:58;4.07;;;3.73;;
55465;SDS011;41329;41.594;23.810;2024-01-10T10:09:26;1.98;;;1.88;;
55465;SDS011;41329;41.594;23.810;2024-01-10T10:11:56;2.23;;;2.10;;
55465;SDS011;41329;41.594;23.810;2024-01-10T10:14:22;2.35;;;1.85;;
55465;SDS011;41329;41.594;23.810;2024-01-10T10:16:51;2.10;;;1.90;;
55465;SDS011;41329;41.594;23.810;2024-01-10T10:19:23;3.30;;;3.10;;
55465;SDS011;41329;41.594;23.810;2024-01-10T10:21:50;4.13;;;3.73;;
55465;SDS011;41329;41.594;23.810;2024-01-10T10:24:16;12.53;;;10.83;;
55465;SDS011;41329;41.594;23.810;2024-01-10T10:26:42;3.07;;;2.53;;
55465;SDS011;41329;41.594;23.810;2024-01-10T10:29:08;4.57;;;4.27;;
55465;SDS011;41329;41.594;23.810;2024-01-10T10:31:34;3.50;;;3.20;;
55465;SDS011;41329;41.594;23.810;2024-01-10T10:34:00;2.87;;;2.50;;
55465;SDS011;41329;41.594;23.810;2024-01-10T10:36:32;1.93;;;1.83;;
55465;SDS011;41329;41.594;23.810;2024-01-10T10:38:59;2.40;;;2.20;;
55465;SDS011;41329;41.594;23.810;2024-01-10T10:41:29;4.55;;;4.25;;
55465;SDS011;41329;41.594;23.810;2024-01-10T10:43:56;4.80;;;2.50;;
55465;SDS011;41329;41.594;23.810;2024-01-10T10:46:22;3.40;;;3.10;;
55465;SDS011;41329;41.594;23.810;2024-01-10T10:48:52;4.22;;;3.92;;
55465;SDS011;41329;41.594;23.810;2024-01-10T10:51:19;3.93;;;2.63;;
55465;SDS011;41329;41.594;23.810;2024-01-10T10:53:55;3.53;;;3.23;;
55465;SDS011;41329;41.594;23.810;2024-01-10T10:56:21;4.03;;;3.53;;
55465;SDS011;41329;41.594;23.810;2024-01-10T10:58:48;3.33;;;3.03;;
55465;SDS011;41329;41.594;23.810;2024-01-10T11:01:15;5.50;;;5.10;;
55465;SDS011;41329;41.594;23.810;2024-01-10T11:03:42;3.70;;;3.40;;
55465;SDS011;41329;41.594;23.810;2024-01-10T11:06:09;2.87;;;2.67;;
55465;SDS011;41329;41.594;23.810;2024-01-10T11:08:36;3.23;;;3.03;;
55465;SDS011;41329;41.594;23.810;2024-01-10T11:11:06;5.65;;;4.68;;
55465;SDS011;41329;41.594;23.810;2024-01-10T11:13:47;3.37;;;3.10;;
55465;SDS011;41329;41.594;23.810;2024-01-10T11:19:14;4.37;;;4.07;;
55465;SDS011;41329;41.594;23.810;2024-01-10T11:24:49;5.53;;;5.13;;
55465;SDS011;41329;41.594;23.810;2024-01-10T11:27:15;4.13;;;3.13;;
55465;SDS011;41329;41.594;23.810;2024-01-10T11:29:41;3.87;;;3.57;;
55465;SDS011;41329;41.594;23.810;2024-01-10T11:32:16;4.50;;;4.20;;
55465;SDS011;41329;41.594;23.810;2024-01-10T11:34:55;12.47;;;11.77;;
55465;SDS011;41329;41.594;23.810;2024-01-10T11:37:28;3.20;;;2.90;;
55465;SDS011;41329;41.594;23.810;2024-01-10T11:40:07;3.00;;;2.80;;
55465;SDS011;41329;41.594;23.810;2024-01-10T11:42:41;3.87;;;3.57;;
55465;SDS011;41329;41.594;23.810;2024-01-10T11:45:20;2.60;;;2.40;;
55465;SDS011;41329;41.594;23.810;2024-01-10T11:48:02;3.30;;;3.00;;
55465;SDS011;41329;41.594;23.810;2024-01-10T11:50:27;4.20;;;3.90;;
55465;SDS011;41329;41.594;23.810;2024-01-10T11:52:56;3.03;;;2.83;;
55465;SDS011;41329;41.594;23.810;2024-01-10T12:00:38;2.47;;;1.80;;
55465;SDS011;41329;41.594;23.810;2024-01-10T12:03:04;2.10;;;2.00;;
55465;SDS011;41329;41.594;23.810;2024-01-10T12:05:30;1.90;;;1.77;;
55465;SDS011;41329;41.594;23.810;2024-01-10T12:07:55;3.40;;;1.97;;
55465;SDS011;41329;41.594;23.810;2024-01-10T12:10:21;2.73;;;2.53;;
55465;SDS011;41329;41.594;23.810;2024-01-10T12:12:46;3.30;;;3.00;;
55465;SDS011;41329;41.594;23.810;2024-01-10T12:15:11;2.73;;;2.53;;
55465;SDS011;41329;41.594;23.810;2024-01-10T12:17:37;2.70;;;2.30;;
55465;SDS011;41329;41.594;23.810;2024-01-10T12:20:02;3.47;;;3.17;;
55465;SDS011;41329;41.594;23.810;2024-01-10T12:22:28;2.87;;;2.67;;
55465;SDS011;41329;41.594;23.810;2024-01-10T12:24:56;4.20;;;3.90;;
55465;SDS011;41329;41.594;23.810;2024-01-10T12:27:29;5.10;;;4.23;;
55465;SDS011;41329;41.594;23.810;2024-01-10T12:29:55;4.63;;;3.50;;
55465;SDS011;41329;41.594;23.810;2024-01-10T12:32:21;4.30;;;3.17;;
55465;SDS011;41329;41.594;23.810;2024-01-10T12:34:54;3.93;;;3.63;;
55465;SDS011;41329;41.594;23.810;2024-01-10T12:37:22;3.17;;;2.97;;
55465;SDS011;41329;41.594;23.810;2024-01-10T12:39:48;2.43;;;2.23;;
55465;SDS011;41329;41.594;23.810;2024-01-10T12:42:15;2.20;;;2.03;;
55465;SDS011;41329;41.594;23.810;2024-01-10T12:44:43;2.37;;;1.67;;
55465;SDS011;41329;41.594;23.810;2024-01-10T12:47:09;1.50;;;1.40;;
55465;SDS011;41329;41.594;23.810;2024-01-10T12:49:44;3.27;;;2.97;;
55465;SDS011;41329;41.594;23.810;2024-01-10T12:52:09;1.77;;;1.63;;
55465;SDS011;41329;41.594;23.810;2024-01-10T12:54:38;3.30;;;1.80;;
55465;SDS011;41329;41.594;23.810;2024-01-10T12:57:04;1.73;;;1.63;;
55465;SDS011;41329;41.594;23.810;2024-01-10T12:59:29;1.70;;;1.60;;
55465;SDS011;41329;41.594;23.810;2024-01-10T13:01:55;1.50;;;1.40;;
55465;SDS011;41329;41.594;23.810;2024-01-10T13:04:22;1.77;;;1.43;;
55465;SDS011;41329;41.594;23.810;2024-01-10T13:06:47;2.93;;;1.50;;
55465;SDS011;41329;41.594;23.810;2024-01-10T13:09:13;1.60;;;1.50;;
55465;SDS011;41329;41.594;23.810;2024-01-10T13:11:38;3.07;;;2.77;;
55465;SDS011;41329;41.594;23.810;2024-01-10T13:14:04;1.10;;;1.00;;
55465;SDS011;41329;41.594;23.810;2024-01-10T13:16:29;1.63;;;1.47;;
55465;SDS011;41329;41.594;23.810;2024-01-10T13:18:55;1.27;;;1.17;;
55465;SDS011;41329;41.594;23.810;2024-01-10T13:21:22;1.37;;;1.10;;
55465;SDS011;41329;41.594;23.810;2024-01-10T13:23:48;1.70;;;1.60;;
55465;SDS011;41329;41.594;23.810;2024-01-10T13:26:13;1.80;;;1.70;;
55465;SDS011;41329;41.594;23.810;2024-01-10T13:28:39;1.40;;;1.30;;
55465;SDS011;41329;41.594;23.810;2024-01-10T13:31:05;1.20;;;1.10;;
55465;SDS011;41329;41.594;23.810;2024-01-10T13:33:31;1.10;;;1.00;;
55465;SDS011;41329;41.594;23.810;2024-01-10T13:35:56;3.30;;;2.53;;
55465;SDS011;41329;41.594;23.810;2024-01-10T13:38:22;1.10;;;0.87;;
55465;SDS011;41329;41.594;23.810;2024-01-10T13:40:49;0.87;;;0.87;;
55465;SDS011;41329;41.594;23.810;2024-01-10T13:43:15;1.60;;;0.80;;
55465;SDS011;41329;41.594;23.810;2024-01-10T13:45:40;0.80;;;0.80;;
55465;SDS011;41329;41.594;23.810;2024-01-10T13:48:06;1.30;;;1.20;;
55465;SDS011;41329;41.594;23.810;2024-01-10T13:50:32;2.80;;;2.60;;
55465;SDS011;41329;41.594;23.810;2024-01-10T13:52:58;3.03;;;2.80;;
55465;SDS011;41329;41.594;23.810;2024-01-10T13:55:23;1.53;;;1.43;;
55465;SDS011;41329;41.594;23.810;2024-01-10T13:57:49;3.40;;;3.10;;
55465;SDS011;41329;41.594;23.810;2024-01-10T14:00:15;2.30;;;2.10;;
55465;SDS011;41329;41.594;23.810;2024-01-10T14:02:41;2.50;;;1.27;;
55465;SDS011;41329;41.594;23.810;2024-01-10T14:05:07;1.30;;;1.20;;
55465;SDS011;41329;41.594;23.810;2024-01-10T14:07:34;3.72;;;2.30;;
55465;SDS011;41329;41.594;23.810;2024-01-10T14:10:00;3.23;;;1.50;;
55465;SDS011;41329;41.594;23.810;2024-01-10T14:12:29;7.73;;;6.93;;
55465;SDS011;41329;41.594;23.810;2024-01-10T14:14:54;53.67;;;26.90;;
55465;SDS011;41329;41.594;23.810;2024-01-10T14:17:20;48.47;;;30.57;;
55465;SDS011;41329;41.594;23.810;2024-01-10T14:19:47;12.63;;;11.77;;
55465;SDS011;41329;41.594;23.810;2024-01-10T14:22:14;8.43;;;7.60;;
55465;SDS011;41329;41.594;23.810;2024-01-10T14:24:42;6.87;;;4.43;;
55465;SDS011;41329;41.594;23.810;2024-01-10T14:27:08;4.00;;;3.60;;
55465;SDS011;41329;41.594;23.810;2024-01-10T14:29:34;7.40;;;6.90;;
55465;SDS011;41329;41.594;23.810;2024-01-10T14:31:59;4.97;;;2.50;;
55465;SDS011;41329;41.594;23.810;2024-01-10T14:34:25;3.37;;;3.00;;
55465;SDS011;41329;41.594;23.810;2024-01-10T14:36:50;7.40;;;6.80;;
55465;SDS011;41329;41.594;23.810;2024-01-10T14:39:15;10.90;;;9.90;;